createdAt,value
2018-07-22T00:00:18.886Z,17.10
2018-07-22T00:02:47.295Z,17.10
2018-07-22T00:05:15.689Z,17.00
2018-07-22T00:07:44.280Z,16.90
2018-07-22T00:10:23.029Z,16.90
2018-07-22T00:12:52.125Z,16.80
2018-07-22T00:15:21.515Z,16.70
2018-07-22T00:17:49.915Z,16.70
2018-07-22T00:20:18.799Z,16.70
2018-07-22T00:22:47.615Z,16.70
2018-07-22T00:25:17.615Z,16.70
2018-07-22T00:27:47.119Z,16.60
2018-07-22T00:30:15.552Z,16.50
2018-07-22T00:32:43.963Z,16.40
2018-07-22T00:35:13.601Z,16.30
2018-07-22T00:37:42.498Z,16.30
2018-07-22T00:40:12.590Z,16.20
2018-07-22T00:42:40.978Z,16.10
2018-07-22T00:45:14.032Z,16.00
2018-07-22T00:47:43.564Z,16.00
2018-07-22T00:50:11.955Z,15.90
2018-07-22T00:52:41.151Z,15.90
2018-07-22T00:55:09.554Z,15.80
2018-07-22T00:57:37.986Z,15.70
2018-07-22T01:00:06.839Z,15.70
2018-07-22T01:02:35.602Z,15.70
2018-07-22T01:05:04.064Z,15.70
2018-07-22T01:07:32.456Z,15.80
2018-07-22T01:10:01.407Z,15.80
2018-07-22T01:12:30.398Z,15.80
2018-07-22T01:14:58.882Z,15.70
2018-07-22T01:17:27.274Z,15.60
2018-07-22T01:19:55.676Z,15.50
2018-07-22T01:22:24.464Z,15.50
2018-07-22T01:24:52.882Z,15.40
2018-07-22T01:27:21.283Z,15.30
2018-07-22T01:29:55.959Z,15.20
2018-07-22T01:32:25.048Z,15.20
2018-07-22T01:34:53.446Z,15.30
2018-07-22T01:37:22.015Z,15.30
2018-07-22T01:39:50.408Z,15.20
2018-07-22T01:42:18.978Z,15.00
2018-07-22T01:44:47.837Z,14.80
2018-07-22T01:47:16.236Z,14.70
2018-07-22T01:49:44.927Z,14.60
2018-07-22T01:52:13.794Z,14.60
2018-07-22T01:54:42.201Z,14.60
2018-07-22T01:57:10.620Z,14.60
2018-07-22T01:59:39.049Z,14.70
2018-07-22T02:02:08.215Z,14.70
2018-07-22T02:04:36.849Z,14.70
2018-07-22T02:07:05.859Z,14.80
2018-07-22T02:09:34.273Z,14.90
2018-07-22T02:12:02.678Z,14.90
2018-07-22T02:14:31.084Z,14.90
2018-07-22T02:16:59.757Z,15.00
2018-07-22T02:19:28.173Z,15.00
2018-07-22T02:21:56.566Z,14.90
2018-07-22T02:24:25.074Z,14.80
2018-07-22T02:26:53.482Z,14.90
2018-07-22T02:29:22.533Z,14.90
2018-07-22T02:31:51.018Z,14.90
2018-07-22T02:34:19.435Z,14.80
2018-07-22T02:36:47.841Z,14.80
2018-07-22T02:39:16.226Z,14.60
2018-07-22T02:41:44.653Z,14.60
2018-07-22T02:44:13.580Z,14.40
2018-07-22T02:46:42.427Z,14.20
2018-07-22T02:49:10.828Z,14.10
2018-07-22T02:51:40.043Z,14.00
2018-07-22T02:54:08.485Z,13.90
2018-07-22T02:56:36.892Z,13.90
2018-07-22T02:59:06.398Z,13.90
2018-07-22T03:01:37.568Z,13.90
2018-07-22T03:04:06.902Z,13.90
2018-07-22T03:06:36.044Z,14.00
2018-07-22T03:09:06.395Z,14.00
2018-07-22T03:11:35.092Z,14.10
2018-07-22T03:14:03.514Z,14.10
2018-07-22T03:16:31.929Z,14.10
2018-07-22T03:19:00.336Z,14.10
2018-07-22T03:21:29.291Z,14.20
2018-07-22T03:23:57.699Z,14.20
2018-07-22T03:26:26.797Z,14.10
2018-07-22T03:28:55.738Z,14.10
2018-07-22T03:31:24.865Z,14.00
2018-07-22T03:33:53.725Z,14.00
2018-07-22T03:36:22.129Z,13.90
2018-07-22T03:38:50.829Z,14.00
2018-07-22T03:41:19.317Z,13.90
2018-07-22T03:43:47.707Z,13.80
2018-07-22T03:46:16.117Z,13.80
2018-07-22T03:48:44.521Z,13.70
2018-07-22T03:51:12.970Z,13.70
2018-07-22T03:53:41.390Z,13.70
2018-07-22T03:56:09.791Z,13.80
2018-07-22T03:58:38.198Z,13.80
2018-07-22T04:01:06.957Z,13.80
2018-07-22T04:03:35.406Z,13.80
2018-07-22T04:06:03.950Z,13.70
2018-07-22T04:08:32.342Z,13.60
2018-07-22T04:11:00.756Z,13.60
2018-07-22T04:13:29.172Z,13.70
2018-07-22T04:15:57.872Z,13.80
2018-07-22T04:18:26.268Z,13.90
2018-07-22T04:20:54.674Z,14.00
2018-07-22T04:23:23.117Z,14.10
2018-07-22T04:25:51.515Z,14.20
2018-07-22T04:28:19.938Z,14.30
2018-07-22T04:30:48.338Z,14.30
2018-07-22T04:33:16.749Z,14.40
2018-07-22T04:35:45.187Z,14.40
2018-07-22T04:38:14.031Z,14.50
2018-07-22T04:40:42.680Z,14.50
2018-07-22T04:43:11.534Z,14.50
2018-07-22T04:45:40.205Z,14.50
2018-07-22T04:48:08.609Z,14.50
2018-07-22T04:50:37.008Z,14.50
2018-07-22T04:53:05.442Z,14.60
2018-07-22T04:55:33.835Z,14.70
2018-07-22T04:58:02.277Z,14.80
2018-07-22T05:00:30.710Z,14.90
2018-07-22T05:02:59.367Z,15.00
2018-07-22T05:05:28.403Z,15.10
2018-07-22T05:07:56.828Z,15.20
2018-07-22T05:10:25.243Z,15.30
2018-07-22T05:12:53.663Z,15.30
2018-07-22T05:17:50.181Z,15.30
2018-07-22T05:20:18.630Z,15.40
2018-07-22T05:22:47.057Z,15.50
2018-07-22T05:25:15.875Z,15.60
2018-07-22T05:27:44.695Z,15.70
2018-07-22T05:30:13.314Z,15.80
2018-07-22T05:32:41.810Z,15.90
2018-07-22T05:35:10.236Z,16.00
2018-07-22T05:37:38.624Z,16.10
2018-07-22T05:40:07.037Z,16.20
2018-07-22T05:42:35.448Z,16.30
2018-07-22T05:45:04.721Z,16.40
2018-07-22T05:47:33.135Z,16.50
2018-07-22T05:50:01.540Z,16.50
2018-07-22T05:52:30.620Z,16.60
2018-07-22T05:54:59.025Z,16.70
2018-07-22T05:57:27.434Z,16.90
2018-07-22T05:59:56.446Z,17.00
2018-07-22T06:02:24.856Z,17.10
2018-07-22T06:04:53.264Z,17.30
2018-07-22T06:07:21.668Z,17.40
2018-07-22T06:09:50.075Z,17.50
2018-07-22T06:12:18.488Z,17.60
2018-07-22T06:14:46.918Z,17.70
2018-07-22T06:17:15.350Z,17.70
2018-07-22T06:19:43.760Z,17.70
2018-07-22T06:22:12.165Z,17.70
2018-07-22T06:24:40.817Z,17.70
2018-07-22T06:27:09.451Z,17.80
2018-07-22T06:29:38.418Z,17.80
2018-07-22T06:32:07.113Z,17.90
2018-07-22T06:37:03.781Z,18.20
2018-07-22T06:39:32.193Z,18.30
2018-07-22T06:42:00.674Z,18.50
2018-07-22T06:46:57.772Z,18.70
2018-07-22T06:49:26.937Z,18.80
2018-07-22T06:51:55.483Z,19.00
2018-07-22T06:54:24.363Z,19.10
2018-07-22T06:56:52.980Z,19.20
2018-07-22T06:59:21.380Z,19.40
2018-07-22T07:01:49.789Z,19.50
2018-07-22T07:04:18.201Z,19.70
2018-07-22T07:06:46.669Z,19.80
2018-07-22T07:09:15.148Z,19.90
2018-07-22T07:11:44.150Z,20.10
2018-07-22T07:14:12.562Z,20.20
2018-07-22T07:16:40.964Z,20.30
2018-07-22T07:21:37.706Z,20.50
2018-07-22T07:24:06.562Z,20.60
2018-07-22T07:26:34.987Z,20.70
2018-07-22T07:29:03.543Z,20.80
2018-07-22T07:31:31.958Z,20.90
2018-07-22T07:34:00.585Z,21.10
2018-07-22T07:36:29.496Z,21.20
2018-07-22T07:38:57.963Z,21.40
2018-07-22T07:41:26.404Z,21.50
2018-07-22T07:43:54.822Z,21.70
2018-07-22T07:46:23.256Z,21.90
2018-07-22T07:48:51.697Z,22.00
2018-07-22T07:51:20.147Z,22.20
2018-07-22T07:53:48.571Z,22.30
2018-07-22T07:56:17.362Z,22.40
2018-07-22T07:58:45.795Z,22.50
2018-07-22T08:01:14.369Z,22.60
2018-07-22T08:03:43.422Z,22.70
2018-07-22T08:06:12.047Z,22.80
2018-07-22T08:08:40.481Z,22.80
2018-07-22T08:11:08.972Z,22.80
2018-07-22T08:13:37.391Z,22.70
2018-07-22T08:16:11.019Z,22.70
2018-07-22T08:18:40.003Z,22.70
2018-07-22T08:21:08.443Z,22.80
2018-07-22T08:23:37.489Z,22.90
2018-07-22T08:26:06.366Z,22.90
2018-07-22T08:28:46.119Z,23.00
2018-07-22T08:31:14.533Z,23.00
2018-07-22T08:33:42.933Z,23.10
2018-07-22T08:36:11.351Z,23.30
2018-07-22T08:38:39.757Z,23.40
2018-07-22T08:41:08.203Z,23.50
2018-07-22T08:43:36.966Z,23.50
2018-07-22T08:46:05.838Z,23.70
2018-07-22T08:48:34.323Z,23.80
2018-07-22T08:51:03.208Z,23.80
2018-07-22T08:53:31.993Z,23.90
2018-07-22T08:56:00.405Z,23.90
2018-07-22T08:58:28.986Z,24.00
2018-07-22T09:00:57.408Z,24.10
2018-07-22T09:03:26.298Z,24.10
2018-07-22T09:05:54.996Z,24.20
2018-07-22T09:08:23.712Z,24.30
2018-07-22T09:10:52.143Z,24.20
2018-07-22T09:13:20.549Z,24.30
2018-07-22T09:15:48.975Z,24.50
2018-07-22T09:18:17.403Z,24.60
2018-07-22T09:20:45.825Z,24.70
2018-07-22T09:23:14.223Z,24.70
2018-07-22T09:25:42.627Z,24.80
2018-07-22T09:28:11.016Z,24.90
2018-07-22T09:30:39.411Z,24.90
2018-07-22T09:33:07.831Z,25.00
2018-07-22T09:35:36.555Z,25.00
2018-07-22T09:38:05.492Z,25.10
2018-07-22T09:40:34.097Z,25.10
2018-07-22T09:43:02.505Z,25.20
2018-07-22T09:45:31.061Z,25.30
2018-07-22T09:47:59.518Z,25.40
2018-07-22T09:50:27.915Z,25.50
2018-07-22T09:52:56.351Z,25.50
2018-07-22T09:55:24.757Z,25.50
2018-07-22T09:57:53.496Z,25.50
2018-07-22T10:00:27.327Z,25.60
2018-07-22T10:02:55.950Z,25.50
2018-07-22T10:05:27.291Z,25.50
2018-07-22T10:07:55.824Z,25.60
2018-07-22T10:10:24.887Z,25.60
2018-07-22T10:13:04.352Z,25.60
2018-07-22T10:15:33.748Z,25.70
2018-07-22T10:18:02.890Z,25.80
2018-07-22T10:20:31.611Z,25.80
2018-07-22T10:23:00.048Z,25.80
2018-07-22T10:25:29.525Z,25.80
2018-07-22T10:30:26.536Z,26.00
2018-07-22T10:32:55.269Z,26.10
2018-07-22T10:35:23.685Z,26.10
2018-07-22T10:37:52.087Z,26.20
2018-07-22T10:40:20.513Z,26.20
2018-07-22T10:42:48.942Z,26.20
2018-07-22T10:45:17.341Z,26.10
2018-07-22T10:47:45.772Z,26.20
2018-07-22T10:50:14.183Z,26.40
2018-07-22T10:52:45.178Z,26.40
2018-07-22T10:55:13.590Z,26.60
2018-07-22T10:57:42.036Z,26.70
2018-07-22T11:00:14.178Z,26.80
2018-07-22T11:02:42.721Z,26.80
2018-07-22T11:05:12.399Z,26.90
2018-07-22T11:07:40.793Z,27.00
2018-07-22T11:10:09.192Z,27.00
2018-07-22T11:12:37.662Z,27.00
2018-07-22T11:15:07.697Z,27.20
2018-07-22T11:17:36.260Z,27.40
2018-07-22T11:20:05.405Z,27.60
2018-07-22T11:22:33.840Z,27.80
2018-07-22T11:25:02.245Z,27.90
2018-07-22T11:27:30.906Z,27.80
2018-07-22T11:29:59.312Z,27.80
2018-07-22T11:32:27.733Z,27.70
2018-07-22T11:34:56.161Z,27.60
2018-07-22T11:37:24.914Z,27.50
2018-07-22T11:39:53.318Z,27.50
2018-07-22T11:42:21.715Z,27.40
2018-07-22T11:44:50.290Z,27.40
2018-07-22T11:47:18.718Z,27.30
2018-07-22T11:49:47.482Z,27.40
2018-07-22T11:52:15.880Z,27.70
2018-07-22T11:54:44.338Z,27.70
2018-07-22T11:57:12.731Z,27.60
2018-07-22T11:59:41.126Z,27.50
2018-07-22T12:02:09.543Z,27.60
2018-07-22T12:04:37.991Z,27.60
2018-07-22T12:07:06.393Z,27.50
2018-07-22T12:09:35.219Z,27.40
2018-07-22T12:12:04.213Z,27.30
2018-07-22T12:14:32.587Z,27.30
2018-07-22T12:17:01.031Z,27.20
2018-07-22T12:19:29.531Z,27.10
2018-07-22T12:21:58.005Z,27.00
2018-07-22T12:24:26.403Z,27.00
2018-07-22T12:29:23.237Z,26.70
2018-07-22T12:31:51.661Z,26.50
2018-07-22T12:34:20.138Z,26.50
2018-07-22T12:36:48.631Z,26.40
2018-07-22T12:39:17.037Z,26.40
2018-07-22T12:41:45.597Z,26.50
2018-07-22T12:44:13.992Z,26.70
2018-07-22T12:46:42.911Z,27.10
2018-07-22T12:49:11.476Z,27.70
2018-07-22T12:51:40.301Z,28.10
2018-07-22T12:54:08.720Z,28.60
2018-07-22T12:56:37.111Z,28.70
2018-07-22T12:59:05.591Z,28.50
2018-07-22T13:04:02.387Z,28.10
2018-07-22T13:06:30.794Z,28.00
2018-07-22T13:08:59.616Z,27.90
2018-07-22T13:11:28.008Z,27.80
2018-07-22T13:13:56.412Z,27.70
2018-07-22T13:16:25.107Z,27.70
2018-07-22T13:18:53.551Z,28.00
2018-07-22T13:21:21.943Z,28.40
2018-07-22T13:23:50.737Z,28.90
2018-07-22T13:26:19.165Z,29.20
2018-07-22T13:28:47.551Z,29.40
2018-07-22T13:31:16.153Z,29.20
2018-07-22T13:33:44.552Z,28.90
2018-07-22T13:36:13.052Z,28.70
2018-07-22T13:38:41.445Z,28.40
2018-07-22T13:41:09.844Z,28.30
2018-07-22T13:46:06.887Z,28.00
2018-07-22T13:48:35.487Z,28.00
2018-07-22T13:51:03.893Z,28.30
2018-07-22T13:53:32.497Z,28.60
2018-07-22T13:56:00.893Z,28.90
2018-07-22T13:58:29.651Z,29.00
2018-07-22T14:00:58.059Z,29.20
2018-07-22T14:03:26.705Z,29.30
2018-07-22T14:05:55.527Z,29.50
2018-07-22T14:08:23.938Z,29.50
2018-07-22T14:10:53.002Z,29.70
2018-07-22T14:13:21.391Z,29.90
2018-07-22T14:15:49.786Z,30.00
2018-07-22T14:18:18.952Z,30.20
2018-07-22T14:20:47.390Z,30.20
2018-07-22T14:23:15.921Z,30.20
2018-07-22T14:25:44.357Z,30.20
2018-07-22T14:28:12.777Z,30.00
2018-07-22T14:30:41.995Z,30.00
2018-07-22T14:33:11.081Z,30.10
2018-07-22T14:35:39.536Z,30.20
2018-07-22T14:38:07.947Z,30.20
2018-07-22T14:40:36.459Z,30.30
2018-07-22T14:43:05.532Z,30.30
2018-07-22T14:45:33.923Z,30.00
2018-07-22T14:48:02.387Z,29.70
2018-07-22T14:50:30.951Z,29.50
2018-07-22T14:52:59.442Z,29.50
2018-07-22T14:55:28.058Z,29.70
2018-07-22T14:57:56.917Z,29.80
2018-07-22T15:00:25.455Z,29.90
2018-07-22T15:02:53.743Z,30.10
2018-07-22T15:05:22.146Z,30.10
2018-07-22T15:07:50.587Z,29.90
2018-07-22T15:10:18.985Z,29.60
2018-07-22T15:12:47.802Z,29.40
2018-07-22T15:15:16.382Z,29.20
2018-07-22T15:17:45.342Z,29.00
2018-07-22T15:20:13.869Z,28.90
2018-07-22T15:22:42.744Z,28.80
2018-07-22T15:25:11.253Z,28.70
2018-07-22T15:27:39.806Z,28.60
2018-07-22T15:30:08.346Z,28.70
2018-07-22T15:32:36.767Z,28.80
2018-07-22T15:35:05.285Z,28.80
2018-07-22T15:37:33.934Z,28.90
2018-07-22T15:40:02.346Z,29.00
2018-07-22T15:42:31.128Z,29.00
2018-07-22T15:44:59.527Z,29.00
2018-07-22T15:47:27.931Z,28.80
2018-07-22T15:49:56.687Z,28.70
2018-07-22T15:52:25.082Z,28.60
2018-07-22T15:54:53.544Z,28.60
2018-07-22T15:57:21.929Z,28.60
2018-07-22T15:59:50.376Z,28.60
2018-07-22T16:02:19.489Z,28.60
2018-07-22T16:04:47.881Z,28.70
2018-07-22T16:07:16.282Z,28.60
2018-07-22T16:09:44.676Z,28.50
2018-07-22T16:12:14.108Z,28.40
2018-07-22T16:14:42.575Z,28.30
2018-07-22T16:17:11.126Z,28.30
2018-07-22T16:19:39.544Z,28.30
2018-07-22T16:22:07.946Z,28.20
2018-07-22T16:24:36.360Z,28.20
2018-07-22T16:27:05.347Z,28.20
2018-07-22T16:29:33.765Z,28.20
2018-07-22T16:32:02.509Z,28.30
2018-07-22T16:34:30.948Z,28.40
2018-07-22T16:36:59.351Z,28.50
2018-07-22T16:39:27.754Z,28.40
2018-07-22T16:41:56.871Z,28.30
2018-07-22T16:44:25.692Z,28.30
2018-07-22T16:46:54.168Z,28.20
2018-07-22T16:49:22.706Z,28.20
2018-07-22T16:51:51.194Z,28.10
2018-07-22T16:54:19.822Z,28.00
2018-07-22T16:56:48.272Z,27.90
2018-07-22T16:59:16.693Z,27.90
2018-07-22T17:01:45.942Z,28.10
2018-07-22T17:04:15.050Z,28.20
2018-07-22T17:06:43.489Z,28.10
2018-07-22T17:09:12.756Z,28.10
2018-07-22T17:11:41.805Z,28.10
2018-07-22T17:14:10.294Z,28.10
2018-07-22T17:16:38.773Z,28.10
2018-07-22T17:19:07.221Z,28.10
2018-07-22T17:21:36.062Z,27.90
2018-07-22T17:24:04.568Z,27.70
2018-07-22T17:26:32.975Z,27.60
2018-07-22T17:29:02.261Z,27.40
2018-07-22T17:31:30.690Z,27.20
2018-07-22T17:33:59.113Z,27.10
2018-07-22T17:36:27.547Z,26.90
2018-07-22T17:38:55.956Z,26.80
2018-07-22T17:41:24.464Z,26.70
2018-07-22T17:43:52.966Z,26.50
2018-07-22T17:46:21.389Z,26.40
2018-07-22T17:48:49.827Z,26.30
2018-07-22T17:51:18.487Z,26.30
2018-07-22T17:53:46.871Z,26.20
2018-07-22T17:56:15.568Z,26.10
2018-07-22T17:58:44.024Z,26.10
2018-07-22T18:01:12.478Z,26.00
2018-07-22T18:03:40.900Z,26.00
2018-07-22T18:06:09.483Z,26.00
2018-07-22T18:08:37.888Z,25.80
2018-07-22T18:11:06.769Z,25.80
2018-07-22T18:13:35.238Z,25.70
2018-07-22T18:16:03.730Z,25.70
2018-07-22T18:18:32.258Z,25.60
2018-07-22T18:21:00.654Z,25.60
2018-07-22T18:23:29.064Z,25.70
2018-07-22T18:25:57.463Z,25.60
2018-07-22T18:28:25.867Z,25.70
2018-07-22T18:30:54.280Z,25.60
2018-07-22T18:33:22.689Z,25.70
2018-07-22T18:35:51.709Z,25.70
2018-07-22T18:38:20.659Z,25.60
2018-07-22T18:40:49.082Z,25.60
2018-07-22T18:43:17.481Z,25.60
2018-07-22T18:45:46.130Z,25.50
2018-07-22T18:48:14.565Z,25.60
2018-07-22T18:50:43.312Z,25.60
2018-07-22T18:53:11.952Z,25.50
2018-07-22T18:55:40.732Z,25.50
2018-07-22T19:00:37.561Z,25.40
2018-07-22T19:03:06.441Z,25.30
2018-07-22T19:05:34.878Z,25.30
2018-07-22T19:08:03.249Z,25.30
2018-07-22T19:10:31.644Z,25.20
2018-07-22T19:13:00.064Z,25.20
2018-07-22T19:15:28.881Z,25.10
2018-07-22T19:17:57.285Z,25.10
2018-07-22T19:20:25.695Z,25.10
2018-07-22T19:22:54.115Z,25.10
2018-07-22T19:25:22.560Z,25.10
2018-07-22T19:27:50.957Z,25.10
2018-07-22T19:30:19.414Z,25.10
2018-07-22T19:32:47.806Z,24.90
2018-07-22T19:35:16.203Z,24.90
2018-07-22T19:37:44.602Z,24.90
2018-07-22T19:40:13.080Z,24.90
2018-07-22T19:42:41.447Z,24.90
2018-07-22T19:45:09.866Z,24.90
2018-07-22T19:47:38.502Z,24.80
2018-07-22T19:50:06.898Z,24.80
2018-07-22T19:55:03.404Z,24.80
2018-07-22T19:57:31.828Z,24.80
2018-07-22T20:00:01.072Z,24.80
2018-07-22T20:02:29.465Z,24.80
2018-07-22T20:04:57.864Z,24.70
2018-07-22T20:07:26.282Z,24.70
2018-07-22T20:09:54.664Z,24.70
2018-07-22T20:14:51.270Z,24.70
2018-07-22T20:17:19.907Z,24.60
2018-07-22T20:19:48.326Z,24.50
2018-07-22T20:22:16.728Z,24.50
2018-07-22T20:24:45.137Z,24.50
2018-07-22T20:27:13.843Z,24.50
2018-07-22T20:29:42.240Z,24.50
2018-07-22T20:32:10.635Z,24.50
2018-07-22T20:34:39.023Z,24.40
2018-07-22T20:37:07.431Z,24.40
2018-07-22T20:39:36.187Z,24.40
2018-07-22T20:42:04.625Z,24.40
2018-07-22T20:44:33.091Z,24.30
2018-07-22T20:47:02.207Z,24.30
2018-07-22T20:49:30.698Z,24.30
2018-07-22T20:51:59.171Z,24.20
2018-07-22T20:54:27.667Z,24.30
2018-07-22T20:56:56.143Z,24.20
2018-07-22T20:59:24.526Z,24.00
2018-07-22T21:01:52.930Z,24.00
2018-07-22T21:04:21.586Z,23.90
2018-07-22T21:06:49.994Z,23.90
2018-07-22T21:09:18.398Z,23.90
2018-07-22T21:13:00.861Z,23.90
2018-07-22T21:15:29.588Z,23.90
2018-07-22T21:17:58.000Z,23.90
2018-07-22T21:22:54.708Z,23.70
2018-07-22T21:25:23.108Z,23.70
2018-07-22T21:27:51.525Z,23.60
2018-07-22T21:30:19.926Z,23.60
2018-07-22T21:32:57.006Z,23.50
2018-07-22T21:35:25.676Z,23.40
2018-07-22T21:37:54.362Z,23.20
2018-07-22T21:40:22.853Z,23.10
2018-07-22T21:42:51.194Z,23.10
2018-07-22T21:45:19.626Z,23.00
2018-07-22T21:47:48.289Z,23.00
2018-07-22T21:50:16.687Z,23.00
2018-07-22T21:52:45.095Z,23.00
2018-07-22T21:55:13.565Z,22.90
2018-07-22T21:57:41.973Z,22.80
2018-07-22T22:00:31.751Z,22.90
2018-07-22T22:03:02.622Z,22.90
2018-07-22T22:05:31.028Z,22.80
2018-07-22T22:07:59.421Z,22.70
2018-07-22T22:10:28.570Z,22.70
2018-07-22T22:12:57.559Z,22.80
2018-07-22T22:15:28.612Z,22.70
2018-07-22T22:20:48.616Z,22.80
2018-07-22T22:23:31.917Z,22.90
2018-07-22T22:26:03.118Z,22.90
2018-07-22T22:28:31.525Z,22.90
2018-07-22T22:31:00.311Z,22.90
2018-07-22T22:33:28.712Z,22.90
2018-07-22T22:35:57.125Z,22.90
2018-07-22T22:40:53.741Z,22.90
2018-07-22T22:43:22.133Z,22.90
2018-07-22T22:45:50.894Z,23.00
2018-07-22T22:48:19.282Z,23.00
2018-07-22T22:50:47.680Z,23.00
2018-07-22T22:53:16.060Z,22.90
2018-07-22T22:55:44.464Z,22.90
2018-07-22T22:58:23.976Z,22.80
2018-07-22T23:00:52.404Z,22.80
2018-07-22T23:03:20.796Z,22.80
2018-07-22T23:05:49.176Z,22.90
2018-07-22T23:08:18.430Z,22.80
2018-07-22T23:10:46.814Z,22.70
2018-07-22T23:13:15.910Z,22.70
2018-07-22T23:15:44.302Z,22.70
2018-07-22T23:18:12.686Z,22.60
2018-07-22T23:20:41.090Z,22.50
2018-07-22T23:23:09.504Z,22.50
2018-07-22T23:25:37.956Z,22.50
2018-07-22T23:28:06.389Z,22.40
2018-07-22T23:30:35.166Z,22.40
2018-07-22T23:33:03.577Z,22.40
2018-07-22T23:35:31.992Z,22.40
2018-07-22T23:38:00.407Z,22.30
2018-07-22T23:40:28.817Z,22.30
2018-07-22T23:42:57.257Z,22.30
2018-07-22T23:45:26.031Z,22.30
2018-07-22T23:47:54.533Z,22.30
2018-07-22T23:50:22.941Z,22.30
2018-07-22T23:52:51.491Z,22.30
2018-07-22T23:55:19.902Z,22.20
2018-07-22T23:57:48.315Z,22.20
